sensor_id;sensor_type;location;lat;lon;timestamp;temperature;humidity
27890;DHT22;15238;49.082;9.102;2023-05-07T00:00:28;13.50;99.90
27890;DHT22;15238;49.082;9.102;2023-05-07T00:02:28;13.40;99.90
27890;DHT22;15238;49.082;9.102;2023-05-07T00:04:29;13.40;99.90
27890;DHT22;15238;49.082;9.102;2023-05-07T00:06:36;13.40;99.90
27890;DHT22;15238;49.082;9.102;2023-05-07T00:08:36;13.40;99.90
27890;DHT22;15238;49.082;9.102;2023-05-07T00:10:37;13.40;99.90
27890;DHT22;15238;49.082;9.102;2023-05-07T00:12:38;13.40;99.90
27890;DHT22;15238;49.082;9.102;2023-05-07T00:14:38;13.50;99.90
27890;DHT22;15238;49.082;9.102;2023-05-07T00:16:39;13.50;99.90
27890;DHT22;15238;49.082;9.102;2023-05-07T00:18:39;13.50;99.90
27890;DHT22;15238;49.082;9.102;2023-05-07T00:20:40;13.50;99.90
27890;DHT22;15238;49.082;9.102;2023-05-07T00:22:40;13.50;99.90
27890;DHT22;15238;49.082;9.102;2023-05-07T00:24:41;13.50;99.90
27890;DHT22;15238;49.082;9.102;2023-05-07T00:26:42;13.50;99.90
27890;DHT22;15238;49.082;9.102;2023-05-07T00:28:42;13.50;99.90
27890;DHT22;15238;49.082;9.102;2023-05-07T00:30:43;13.50;99.90
27890;DHT22;15238;49.082;9.102;2023-05-07T00:32:43;13.50;99.90
27890;DHT22;15238;49.082;9.102;2023-05-07T00:34:45;13.40;99.90
27890;DHT22;15238;49.082;9.102;2023-05-07T00:36:46;13.40;99.90
27890;DHT22;15238;49.082;9.102;2023-05-07T00:38:46;13.30;99.90
27890;DHT22;15238;49.082;9.102;2023-05-07T00:40:47;13.30;99.90
27890;DHT22;15238;49.082;9.102;2023-05-07T00:42:48;13.20;99.90
27890;DHT22;15238;49.082;9.102;2023-05-07T00:44:49;13.20;99.90
27890;DHT22;15238;49.082;9.102;2023-05-07T00:46:50;13.20;99.90
27890;DHT22;15238;49.082;9.102;2023-05-07T00:48:50;13.20;99.90
27890;DHT22;15238;49.082;9.102;2023-05-07T00:50:51;13.20;99.90
27890;DHT22;15238;49.082;9.102;2023-05-07T00:52:53;13.20;99.90
27890;DHT22;15238;49.082;9.102;2023-05-07T00:54:54;13.20;99.90
27890;DHT22;15238;49.082;9.102;2023-05-07T00:56:55;13.10;99.90
27890;DHT22;15238;49.082;9.102;2023-05-07T00:58:56;13.00;99.90
27890;DHT22;15238;49.082;9.102;2023-05-07T01:00:56;13.00;99.90
27890;DHT22;15238;49.082;9.102;2023-05-07T01:02:57;12.90;99.90
27890;DHT22;15238;49.082;9.102;2023-05-07T01:04:58;12.80;99.90
27890;DHT22;15238;49.082;9.102;2023-05-07T01:07:01;12.90;99.90
27890;DHT22;15238;49.082;9.102;2023-05-07T01:09:02;12.80;99.90
27890;DHT22;15238;49.082;9.102;2023-05-07T01:11:04;12.80;99.90
27890;DHT22;15238;49.082;9.102;2023-05-07T01:13:05;12.90;99.90
27890;DHT22;15238;49.082;9.102;2023-05-07T01:15:08;12.90;99.90
27890;DHT22;15238;49.082;9.102;2023-05-07T01:17:09;12.90;99.90
27890;DHT22;15238;49.082;9.102;2023-05-07T01:19:11;12.90;99.90
27890;DHT22;15238;49.082;9.102;2023-05-07T01:21:15;13.00;99.90
27890;DHT22;15238;49.082;9.102;2023-05-07T01:23:17;13.00;99.90
27890;DHT22;15238;49.082;9.102;2023-05-07T01:25:18;12.90;99.90
27890;DHT22;15238;49.082;9.102;2023-05-07T01:27:19;12.90;99.90
27890;DHT22;15238;49.082;9.102;2023-05-07T01:29:19;12.90;99.90
27890;DHT22;15238;49.082;9.102;2023-05-07T01:31:20;12.90;99.90
27890;DHT22;15238;49.082;9.102;2023-05-07T01:33:21;12.90;99.90
27890;DHT22;15238;49.082;9.102;2023-05-07T01:35:26;12.90;99.90
27890;DHT22;15238;49.082;9.102;2023-05-07T01:37:28;12.90;99.90
27890;DHT22;15238;49.082;9.102;2023-05-07T01:39:30;12.80;99.90
27890;DHT22;15238;49.082;9.102;2023-05-07T01:41:31;12.80;99.90
27890;DHT22;15238;49.082;9.102;2023-05-07T01:43:31;12.70;99.90
27890;DHT22;15238;49.082;9.102;2023-05-07T01:45:32;12.70;99.90
27890;DHT22;15238;49.082;9.102;2023-05-07T01:47:34;12.60;99.90
27890;DHT22;15238;49.082;9.102;2023-05-07T01:49:36;12.60;99.90
27890;DHT22;15238;49.082;9.102;2023-05-07T01:51:37;12.60;99.90
27890;DHT22;15238;49.082;9.102;2023-05-07T01:53:39;12.60;99.90
27890;DHT22;15238;49.082;9.102;2023-05-07T01:55:40;12.60;99.90
27890;DHT22;15238;49.082;9.102;2023-05-07T01:57:41;12.60;99.90
27890;DHT22;15238;49.082;9.102;2023-05-07T01:59:41;12.60;99.90
27890;DHT22;15238;49.082;9.102;2023-05-07T02:01:42;12.60;99.90
27890;DHT22;15238;49.082;9.102;2023-05-07T02:03:42;12.40;99.90
27890;DHT22;15238;49.082;9.102;2023-05-07T02:05:43;12.30;99.90
27890;DHT22;15238;49.082;9.102;2023-05-07T02:07:43;12.20;99.90
27890;DHT22;15238;49.082;9.102;2023-05-07T02:09:44;12.20;99.90
27890;DHT22;15238;49.082;9.102;2023-05-07T02:11:45;12.20;99.90
27890;DHT22;15238;49.082;9.102;2023-05-07T02:13:45;12.20;99.90
27890;DHT22;15238;49.082;9.102;2023-05-07T02:15:46;12.20;99.90
27890;DHT22;15238;49.082;9.102;2023-05-07T02:18:05;12.30;99.90
27890;DHT22;15238;49.082;9.102;2023-05-07T02:20:07;12.30;99.90
27890;DHT22;15238;49.082;9.102;2023-05-07T02:22:13;12.30;99.90
27890;DHT22;15238;49.082;9.102;2023-05-07T02:24:14;12.30;99.90
27890;DHT22;15238;49.082;9.102;2023-05-07T02:26:14;12.40;99.90
27890;DHT22;15238;49.082;9.102;2023-05-07T02:28:15;12.40;99.90
27890;DHT22;15238;49.082;9.102;2023-05-07T02:30:15;12.40;99.90
27890;DHT22;15238;49.082;9.102;2023-05-07T02:32:16;12.40;99.90
27890;DHT22;15238;49.082;9.102;2023-05-07T02:34:17;12.40;99.90
27890;DHT22;15238;49.082;9.102;2023-05-07T02:36:17;12.40;99.90
27890;DHT22;15238;49.082;9.102;2023-05-07T02:38:18;12.40;99.90
27890;DHT22;15238;49.082;9.102;2023-05-07T02:40:18;12.40;99.90
27890;DHT22;15238;49.082;9.102;2023-05-07T02:42:19;12.40;99.90
27890;DHT22;15238;49.082;9.102;2023-05-07T02:44:19;12.40;99.90
27890;DHT22;15238;49.082;9.102;2023-05-07T02:46:20;12.40;99.90
27890;DHT22;15238;49.082;9.102;2023-05-07T02:48:20;12.40;99.90
27890;DHT22;15238;49.082;9.102;2023-05-07T02:50:21;12.40;99.90
27890;DHT22;15238;49.082;9.102;2023-05-07T02:52:22;12.30;99.90
27890;DHT22;15238;49.082;9.102;2023-05-07T02:54:22;12.30;99.90
27890;DHT22;15238;49.082;9.102;2023-05-07T02:56:25;12.20;99.90
27890;DHT22;15238;49.082;9.102;2023-05-07T02:58:26;12.10;99.90
27890;DHT22;15238;49.082;9.102;2023-05-07T03:00:27;12.20;99.90
27890;DHT22;15238;49.082;9.102;2023-05-07T03:02:27;12.10;99.90
27890;DHT22;15238;49.082;9.102;2023-05-07T03:04:28;12.10;99.90
27890;DHT22;15238;49.082;9.102;2023-05-07T03:06:28;12.10;99.90
27890;DHT22;15238;49.082;9.102;2023-05-07T03:08:29;12.10;99.90
27890;DHT22;15238;49.082;9.102;2023-05-07T03:10:30;12.00;99.90
27890;DHT22;15238;49.082;9.102;2023-05-07T03:12:31;11.90;99.90
27890;DHT22;15238;49.082;9.102;2023-05-07T03:14:31;11.80;99.90
27890;DHT22;15238;49.082;9.102;2023-05-07T03:16:32;11.70;99.90
27890;DHT22;15238;49.082;9.102;2023-05-07T03:18:33;11.60;99.90
27890;DHT22;15238;49.082;9.102;2023-05-07T03:20:33;11.60;99.90
27890;DHT22;15238;49.082;9.102;2023-05-07T03:22:34;11.60;99.90
27890;DHT22;15238;49.082;9.102;2023-05-07T03:24:34;11.60;99.90
27890;DHT22;15238;49.082;9.102;2023-05-07T03:26:35;11.60;99.90
27890;DHT22;15238;49.082;9.102;2023-05-07T03:28:36;11.60;99.90
27890;DHT22;15238;49.082;9.102;2023-05-07T03:30:37;11.70;99.90
27890;DHT22;15238;49.082;9.102;2023-05-07T03:32:38;11.60;99.90
27890;DHT22;15238;49.082;9.102;2023-05-07T03:34:38;11.70;99.90
27890;DHT22;15238;49.082;9.102;2023-05-07T03:36:39;11.60;99.90
27890;DHT22;15238;49.082;9.102;2023-05-07T03:38:39;11.60;99.90
27890;DHT22;15238;49.082;9.102;2023-05-07T03:40:40;11.60;99.90
27890;DHT22;15238;49.082;9.102;2023-05-07T03:42:40;11.50;99.90
27890;DHT22;15238;49.082;9.102;2023-05-07T03:44:41;11.40;99.90
27890;DHT22;15238;49.082;9.102;2023-05-07T03:46:42;11.30;99.90
27890;DHT22;15238;49.082;9.102;2023-05-07T03:48:42;11.30;99.90
27890;DHT22;15238;49.082;9.102;2023-05-07T03:50:43;11.20;99.90
27890;DHT22;15238;49.082;9.102;2023-05-07T03:52:43;11.10;99.90
27890;DHT22;15238;49.082;9.102;2023-05-07T03:54:44;11.10;99.90
27890;DHT22;15238;49.082;9.102;2023-05-07T03:56:45;11.10;99.90
27890;DHT22;15238;49.082;9.102;2023-05-07T03:58:45;11.10;99.90
27890;DHT22;15238;49.082;9.102;2023-05-07T04:00:46;11.10;99.90
27890;DHT22;15238;49.082;9.102;2023-05-07T04:02:46;11.10;99.90
27890;DHT22;15238;49.082;9.102;2023-05-07T04:04:48;11.10;99.90
27890;DHT22;15238;49.082;9.102;2023-05-07T04:06:49;11.00;99.90
27890;DHT22;15238;49.082;9.102;2023-05-07T04:08:50;10.90;99.90
27890;DHT22;15238;49.082;9.102;2023-05-07T04:10:55;11.00;99.90
27890;DHT22;15238;49.082;9.102;2023-05-07T04:12:55;11.00;99.90
27890;DHT22;15238;49.082;9.102;2023-05-07T04:14:57;11.10;99.90
27890;DHT22;15238;49.082;9.102;2023-05-07T04:16:58;11.10;99.90
27890;DHT22;15238;49.082;9.102;2023-05-07T04:18:59;11.20;99.90
27890;DHT22;15238;49.082;9.102;2023-05-07T04:21:00;11.30;99.90
27890;DHT22;15238;49.082;9.102;2023-05-07T04:23:00;11.30;99.90
27890;DHT22;15238;49.082;9.102;2023-05-07T04:25:01;11.40;99.90
27890;DHT22;15238;49.082;9.102;2023-05-07T04:27:01;11.40;99.90
27890;DHT22;15238;49.082;9.102;2023-05-07T04:29:02;11.50;99.90
27890;DHT22;15238;49.082;9.102;2023-05-07T04:31:02;11.50;99.90
27890;DHT22;15238;49.082;9.102;2023-05-07T04:33:03;11.60;99.90
27890;DHT22;15238;49.082;9.102;2023-05-07T04:35:04;11.60;99.90
27890;DHT22;15238;49.082;9.102;2023-05-07T04:37:04;11.60;99.90
27890;DHT22;15238;49.082;9.102;2023-05-07T04:39:05;11.60;99.90
27890;DHT22;15238;49.082;9.102;2023-05-07T04:41:06;11.60;99.90
27890;DHT22;15238;49.082;9.102;2023-05-07T04:43:07;11.60;99.90
27890;DHT22;15238;49.082;9.102;2023-05-07T04:45:09;11.60;99.90
27890;DHT22;15238;49.082;9.102;2023-05-07T04:47:11;11.70;99.90
27890;DHT22;15238;49.082;9.102;2023-05-07T04:49:11;11.70;99.90
27890;DHT22;15238;49.082;9.102;2023-05-07T04:51:12;11.80;99.90
27890;DHT22;15238;49.082;9.102;2023-05-07T04:53:12;11.80;99.90
27890;DHT22;15238;49.082;9.102;2023-05-07T04:55:13;11.90;99.90
27890;DHT22;15238;49.082;9.102;2023-05-07T04:57:14;12.00;99.90
27890;DHT22;15238;49.082;9.102;2023-05-07T04:59:15;12.10;99.90
27890;DHT22;15238;49.082;9.102;2023-05-07T05:01:16;12.30;99.90
27890;DHT22;15238;49.082;9.102;2023-05-07T05:03:16;12.40;99.90
27890;DHT22;15238;49.082;9.102;2023-05-07T05:05:17;12.50;99.90
27890;DHT22;15238;49.082;9.102;2023-05-07T05:07:17;12.70;99.90
27890;DHT22;15238;49.082;9.102;2023-05-07T05:09:18;12.70;99.90
27890;DHT22;15238;49.082;9.102;2023-05-07T05:11:18;12.70;99.90
27890;DHT22;15238;49.082;9.102;2023-05-07T05:13:19;12.60;99.90
27890;DHT22;15238;49.082;9.102;2023-05-07T05:15:19;12.60;99.90
27890;DHT22;15238;49.082;9.102;2023-05-07T05:17:20;12.70;99.90
27890;DHT22;15238;49.082;9.102;2023-05-07T05:19:20;12.80;99.90
27890;DHT22;15238;49.082;9.102;2023-05-07T05:21:21;12.80;99.90
27890;DHT22;15238;49.082;9.102;2023-05-07T05:23:22;12.70;99.90
27890;DHT22;15238;49.082;9.102;2023-05-07T05:25:22;12.70;99.90
27890;DHT22;15238;49.082;9.102;2023-05-07T05:27:23;12.70;99.90
27890;DHT22;15238;49.082;9.102;2023-05-07T05:29:23;12.80;99.90
27890;DHT22;15238;49.082;9.102;2023-05-07T05:31:24;12.90;99.90
27890;DHT22;15238;49.082;9.102;2023-05-07T05:33:24;13.00;99.90
27890;DHT22;15238;49.082;9.102;2023-05-07T05:35:25;13.10;99.90
27890;DHT22;15238;49.082;9.102;2023-05-07T05:37:25;13.20;99.90
27890;DHT22;15238;49.082;9.102;2023-05-07T05:39:26;13.20;99.90
27890;DHT22;15238;49.082;9.102;2023-05-07T05:41:26;13.20;99.90
27890;DHT22;15238;49.082;9.102;2023-05-07T05:43:27;13.30;99.90
27890;DHT22;15238;49.082;9.102;2023-05-07T05:45:27;13.50;99.90
27890;DHT22;15238;49.082;9.102;2023-05-07T05:47:28;13.60;99.90
27890;DHT22;15238;49.082;9.102;2023-05-07T05:49:29;13.50;99.90
27890;DHT22;15238;49.082;9.102;2023-05-07T05:51:30;13.60;99.90
27890;DHT22;15238;49.082;9.102;2023-05-07T05:53:30;13.50;99.90
27890;DHT22;15238;49.082;9.102;2023-05-07T05:55:31;13.60;99.90
27890;DHT22;15238;49.082;9.102;2023-05-07T05:57:32;13.70;99.90
27890;DHT22;15238;49.082;9.102;2023-05-07T05:59:33;13.90;99.90
27890;DHT22;15238;49.082;9.102;2023-05-07T06:01:33;14.20;99.90
27890;DHT22;15238;49.082;9.102;2023-05-07T06:03:34;14.30;99.90
27890;DHT22;15238;49.082;9.102;2023-05-07T06:05:34;14.40;99.90
27890;DHT22;15238;49.082;9.102;2023-05-07T06:07:35;14.60;99.90
27890;DHT22;15238;49.082;9.102;2023-05-07T06:09:35;14.80;99.90
27890;DHT22;15238;49.082;9.102;2023-05-07T06:11:36;15.20;99.90
27890;DHT22;15238;49.082;9.102;2023-05-07T06:13:36;15.60;99.90
27890;DHT22;15238;49.082;9.102;2023-05-07T06:15:37;15.90;99.90
27890;DHT22;15238;49.082;9.102;2023-05-07T06:17:37;16.40;99.90
27890;DHT22;15238;49.082;9.102;2023-05-07T06:19:38;16.60;99.90
27890;DHT22;15238;49.082;9.102;2023-05-07T06:21:39;16.90;99.90
27890;DHT22;15238;49.082;9.102;2023-05-07T06:23:40;17.10;99.90
27890;DHT22;15238;49.082;9.102;2023-05-07T06:25:41;17.00;99.90
27890;DHT22;15238;49.082;9.102;2023-05-07T06:27:41;16.80;99.90
27890;DHT22;15238;49.082;9.102;2023-05-07T06:29:42;16.40;99.90
27890;DHT22;15238;49.082;9.102;2023-05-07T06:31:42;16.30;99.90
27890;DHT22;15238;49.082;9.102;2023-05-07T06:33:44;16.10;99.90
27890;DHT22;15238;49.082;9.102;2023-05-07T06:35:45;16.20;99.90
27890;DHT22;15238;49.082;9.102;2023-05-07T06:37:45;16.40;99.90
27890;DHT22;15238;49.082;9.102;2023-05-07T06:39:46;16.30;99.90
27890;DHT22;15238;49.082;9.102;2023-05-07T06:41:46;16.20;99.90
27890;DHT22;15238;49.082;9.102;2023-05-07T06:43:47;16.30;99.90
27890;DHT22;15238;49.082;9.102;2023-05-07T06:45:47;16.40;99.90
27890;DHT22;15238;49.082;9.102;2023-05-07T06:47:48;16.60;99.90
27890;DHT22;15238;49.082;9.102;2023-05-07T06:49:48;16.90;99.90
27890;DHT22;15238;49.082;9.102;2023-05-07T06:51:49;17.30;99.90
27890;DHT22;15238;49.082;9.102;2023-05-07T06:53:49;17.50;99.90
27890;DHT22;15238;49.082;9.102;2023-05-07T06:55:50;17.80;99.90
27890;DHT22;15238;49.082;9.102;2023-05-07T06:57:50;17.40;99.90
27890;DHT22;15238;49.082;9.102;2023-05-07T06:59:52;17.50;99.90
27890;DHT22;15238;49.082;9.102;2023-05-07T07:01:53;17.60;99.90
27890;DHT22;15238;49.082;9.102;2023-05-07T07:03:53;17.60;99.90
27890;DHT22;15238;49.082;9.102;2023-05-07T07:05:54;17.70;99.90
27890;DHT22;15238;49.082;9.102;2023-05-07T07:07:55;18.00;99.90
27890;DHT22;15238;49.082;9.102;2023-05-07T07:09:55;18.20;99.90
27890;DHT22;15238;49.082;9.102;2023-05-07T07:11:56;18.30;99.90
27890;DHT22;15238;49.082;9.102;2023-05-07T07:13:56;18.20;99.90
27890;DHT22;15238;49.082;9.102;2023-05-07T07:15:57;18.50;99.90
27890;DHT22;15238;49.082;9.102;2023-05-07T07:17:58;18.70;99.90
27890;DHT22;15238;49.082;9.102;2023-05-07T07:19:58;18.90;99.90
27890;DHT22;15238;49.082;9.102;2023-05-07T07:21:59;18.90;99.90
27890;DHT22;15238;49.082;9.102;2023-05-07T07:24:00;18.50;99.90
27890;DHT22;15238;49.082;9.102;2023-05-07T07:26:00;18.50;99.90
27890;DHT22;15238;49.082;9.102;2023-05-07T07:28:01;18.80;99.90
27890;DHT22;15238;49.082;9.102;2023-05-07T07:30:02;19.20;99.90
27890;DHT22;15238;49.082;9.102;2023-05-07T07:32:02;19.30;99.90
27890;DHT22;15238;49.082;9.102;2023-05-07T07:34:03;19.20;99.90
27890;DHT22;15238;49.082;9.102;2023-05-07T07:36:05;19.50;99.90
27890;DHT22;15238;49.082;9.102;2023-05-07T07:38:06;19.20;99.90
27890;DHT22;15238;49.082;9.102;2023-05-07T07:40:07;18.80;99.90
27890;DHT22;15238;49.082;9.102;2023-05-07T07:42:07;19.00;99.90
27890;DHT22;15238;49.082;9.102;2023-05-07T07:44:08;19.20;99.90
27890;DHT22;15238;49.082;9.102;2023-05-07T07:46:09;19.50;99.90
27890;DHT22;15238;49.082;9.102;2023-05-07T07:48:09;19.80;99.90
27890;DHT22;15238;49.082;9.102;2023-05-07T07:50:10;20.00;99.90
27890;DHT22;15238;49.082;9.102;2023-05-07T07:52:10;19.70;99.90
27890;DHT22;15238;49.082;9.102;2023-05-07T07:54:11;20.30;99.90
27890;DHT22;15238;49.082;9.102;2023-05-07T07:56:11;20.00;99.90
27890;DHT22;15238;49.082;9.102;2023-05-07T07:58:12;20.40;99.90
27890;DHT22;15238;49.082;9.102;2023-05-07T08:00:13;20.90;99.90
27890;DHT22;15238;49.082;9.102;2023-05-07T08:02:14;21.50;99.90
27890;DHT22;15238;49.082;9.102;2023-05-07T08:04:14;21.70;99.90
27890;DHT22;15238;49.082;9.102;2023-05-07T08:06:15;21.60;99.90
27890;DHT22;15238;49.082;9.102;2023-05-07T08:08:15;21.70;99.90
27890;DHT22;15238;49.082;9.102;2023-05-07T08:10:16;22.00;99.90
27890;DHT22;15238;49.082;9.102;2023-05-07T08:12:21;22.30;99.90
27890;DHT22;15238;49.082;9.102;2023-05-07T08:14:21;22.50;99.90
27890;DHT22;15238;49.082;9.102;2023-05-07T08:16:22;22.40;99.90
27890;DHT22;15238;49.082;9.102;2023-05-07T08:18:23;22.50;99.90
27890;DHT22;15238;49.082;9.102;2023-05-07T08:20:25;22.30;99.90
27890;DHT22;15238;49.082;9.102;2023-05-07T08:22:25;21.90;99.90
27890;DHT22;15238;49.082;9.102;2023-05-07T08:24:26;21.90;99.90
27890;DHT22;15238;49.082;9.102;2023-05-07T08:26:26;22.10;99.90
27890;DHT22;15238;49.082;9.102;2023-05-07T08:28:27;22.10;99.90
27890;DHT22;15238;49.082;9.102;2023-05-07T08:30:27;22.20;99.90
27890;DHT22;15238;49.082;9.102;2023-05-07T08:32:28;22.40;99.90
27890;DHT22;15238;49.082;9.102;2023-05-07T08:34:28;22.40;99.90
27890;DHT22;15238;49.082;9.102;2023-05-07T08:36:29;22.10;99.90
27890;DHT22;15238;49.082;9.102;2023-05-07T08:38:29;22.20;99.90
27890;DHT22;15238;49.082;9.102;2023-05-07T08:40:38;22.20;99.90
27890;DHT22;15238;49.082;9.102;2023-05-07T08:42:40;22.30;99.90
27890;DHT22;15238;49.082;9.102;2023-05-07T08:44:44;21.80;99.90
27890;DHT22;15238;49.082;9.102;2023-05-07T08:46:47;22.20;99.90
27890;DHT22;15238;49.082;9.102;2023-05-07T08:48:50;22.40;99.90
27890;DHT22;15238;49.082;9.102;2023-05-07T08:50:51;22.60;99.90
27890;DHT22;15238;49.082;9.102;2023-05-07T08:52:52;22.70;99.90
27890;DHT22;15238;49.082;9.102;2023-05-07T08:54:52;22.40;99.90
27890;DHT22;15238;49.082;9.102;2023-05-07T08:56:53;22.70;99.90
27890;DHT22;15238;49.082;9.102;2023-05-07T08:58:53;22.70;99.90
27890;DHT22;15238;49.082;9.102;2023-05-07T09:01:01;22.70;99.90
27890;DHT22;15238;49.082;9.102;2023-05-07T09:03:03;22.80;99.90
27890;DHT22;15238;49.082;9.102;2023-05-07T09:05:04;23.10;99.90
27890;DHT22;15238;49.082;9.102;2023-05-07T09:07:05;23.40;99.90
27890;DHT22;15238;49.082;9.102;2023-05-07T09:09:05;23.70;99.90
27890;DHT22;15238;49.082;9.102;2023-05-07T09:11:06;23.70;99.90
27890;DHT22;15238;49.082;9.102;2023-05-07T09:13:07;23.70;99.90
27890;DHT22;15238;49.082;9.102;2023-05-07T09:15:08;23.80;99.30
27890;DHT22;15238;49.082;9.102;2023-05-07T09:17:08;23.90;99.90
27890;DHT22;15238;49.082;9.102;2023-05-07T09:19:09;23.80;99.30
27890;DHT22;15238;49.082;9.102;2023-05-07T09:21:11;23.70;99.90
27890;DHT22;15238;49.082;9.102;2023-05-07T09:23:11;23.10;99.60
27890;DHT22;15238;49.082;9.102;2023-05-07T09:25:12;22.80;99.90
27890;DHT22;15238;49.082;9.102;2023-05-07T09:27:12;22.90;99.90
27890;DHT22;15238;49.082;9.102;2023-05-07T09:29:15;23.20;99.90
27890;DHT22;15238;49.082;9.102;2023-05-07T09:31:17;23.30;99.90
27890;DHT22;15238;49.082;9.102;2023-05-07T09:33:17;23.40;99.80
27890;DHT22;15238;49.082;9.102;2023-05-07T09:35:18;23.60;99.90
27890;DHT22;15238;49.082;9.102;2023-05-07T09:37:19;23.90;99.40
27890;DHT22;15238;49.082;9.102;2023-05-07T09:39:19;24.20;99.90
27890;DHT22;15238;49.082;9.102;2023-05-07T09:41:20;23.40;99.90
27890;DHT22;15238;49.082;9.102;2023-05-07T09:43:21;23.60;99.70
27890;DHT22;15238;49.082;9.102;2023-05-07T09:45:24;23.80;99.40
27890;DHT22;15238;49.082;9.102;2023-05-07T09:47:27;24.10;99.10
27890;DHT22;15238;49.082;9.102;2023-05-07T09:49:35;24.30;98.90
27890;DHT22;15238;49.082;9.102;2023-05-07T09:51:47;24.60;98.80
27890;DHT22;15238;49.082;9.102;2023-05-07T09:53:48;24.30;99.90
27890;DHT22;15238;49.082;9.102;2023-05-07T09:55:51;24.40;99.90
27890;DHT22;15238;49.082;9.102;2023-05-07T09:57:53;24.30;99.70
27890;DHT22;15238;49.082;9.102;2023-05-07T09:59:55;24.10;99.90
27890;DHT22;15238;49.082;9.102;2023-05-07T10:01:58;24.00;99.50
27890;DHT22;15238;49.082;9.102;2023-05-07T10:04:01;23.90;99.20
27890;DHT22;15238;49.082;9.102;2023-05-07T10:06:03;23.70;99.90
27890;DHT22;15238;49.082;9.102;2023-05-07T10:08:05;23.70;99.90
27890;DHT22;15238;49.082;9.102;2023-05-07T10:10:07;23.50;99.90
27890;DHT22;15238;49.082;9.102;2023-05-07T10:12:07;23.70;99.90
27890;DHT22;15238;49.082;9.102;2023-05-07T10:14:09;23.90;99.90
27890;DHT22;15238;49.082;9.102;2023-05-07T10:16:10;23.90;99.70
27890;DHT22;15238;49.082;9.102;2023-05-07T10:18:12;24.10;99.90
27890;DHT22;15238;49.082;9.102;2023-05-07T10:20:13;24.20;99.90
27890;DHT22;15238;49.082;9.102;2023-05-07T10:22:15;24.10;99.90
27890;DHT22;15238;49.082;9.102;2023-05-07T10:24:29;24.30;99.90
27890;DHT22;15238;49.082;9.102;2023-05-07T10:26:32;23.90;99.50
27890;DHT22;15238;49.082;9.102;2023-05-07T10:28:37;24.10;99.40
27890;DHT22;15238;49.082;9.102;2023-05-07T10:31:07;24.40;99.90
27890;DHT22;15238;49.082;9.102;2023-05-07T10:33:10;24.00;99.70
27890;DHT22;15238;49.082;9.102;2023-05-07T10:35:19;24.20;99.90
27890;DHT22;15238;49.082;9.102;2023-05-07T10:37:21;23.80;99.90
27890;DHT22;15238;49.082;9.102;2023-05-07T10:39:23;24.10;99.90
27890;DHT22;15238;49.082;9.102;2023-05-07T10:41:23;24.10;99.90
27890;DHT22;15238;49.082;9.102;2023-05-07T10:43:24;24.30;99.30
27890;DHT22;15238;49.082;9.102;2023-05-07T10:45:25;24.30;97.80
27890;DHT22;15238;49.082;9.102;2023-05-07T10:47:26;24.50;99.10
27890;DHT22;15238;49.082;9.102;2023-05-07T10:49:27;24.60;98.30
27890;DHT22;15238;49.082;9.102;2023-05-07T10:51:28;24.50;97.40
27890;DHT22;15238;49.082;9.102;2023-05-07T10:53:29;24.10;98.50
27890;DHT22;15238;49.082;9.102;2023-05-07T10:55:30;24.40;99.80
27890;DHT22;15238;49.082;9.102;2023-05-07T10:57:34;24.30;99.90
27890;DHT22;15238;49.082;9.102;2023-05-07T10:59:39;24.40;99.50
27890;DHT22;15238;49.082;9.102;2023-05-07T11:01:54;24.70;98.10
27890;DHT22;15238;49.082;9.102;2023-05-07T11:04:17;24.90;98.50
27890;DHT22;15238;49.082;9.102;2023-05-07T11:06:24;24.90;97.50
27890;DHT22;15238;49.082;9.102;2023-05-07T11:08:25;24.60;97.80
27890;DHT22;15238;49.082;9.102;2023-05-07T11:10:54;24.90;97.10
27890;DHT22;15238;49.082;9.102;2023-05-07T11:12:55;25.20;96.70
27890;DHT22;15238;49.082;9.102;2023-05-07T11:14:56;25.30;97.40
27890;DHT22;15238;49.082;9.102;2023-05-07T11:17:03;25.30;99.90
27890;DHT22;15238;49.082;9.102;2023-05-07T11:19:04;25.50;98.10
27890;DHT22;15238;49.082;9.102;2023-05-07T11:21:05;25.50;97.00
27890;DHT22;15238;49.082;9.102;2023-05-07T11:23:06;25.40;94.50
27890;DHT22;15238;49.082;9.102;2023-05-07T11:25:06;25.10;95.90
27890;DHT22;15238;49.082;9.102;2023-05-07T11:27:07;24.90;96.10
27890;DHT22;15238;49.082;9.102;2023-05-07T11:29:16;24.90;95.70
27890;DHT22;15238;49.082;9.102;2023-05-07T11:31:25;25.20;94.10
27890;DHT22;15238;49.082;9.102;2023-05-07T11:33:26;25.20;98.00
27890;DHT22;15238;49.082;9.102;2023-05-07T11:35:27;25.30;97.70
27890;DHT22;15238;49.082;9.102;2023-05-07T11:37:28;25.50;97.80
27890;DHT22;15238;49.082;9.102;2023-05-07T11:39:32;25.10;97.20
27890;DHT22;15238;49.082;9.102;2023-05-07T11:41:34;25.20;96.40
27890;DHT22;15238;49.082;9.102;2023-05-07T11:43:36;25.60;98.50
27890;DHT22;15238;49.082;9.102;2023-05-07T11:45:36;25.70;97.10
27890;DHT22;15238;49.082;9.102;2023-05-07T11:47:37;25.90;95.00
27890;DHT22;15238;49.082;9.102;2023-05-07T11:49:38;25.90;96.60
27890;DHT22;15238;49.082;9.102;2023-05-07T11:51:39;25.90;94.60
27890;DHT22;15238;49.082;9.102;2023-05-07T11:53:41;25.90;96.20
27890;DHT22;15238;49.082;9.102;2023-05-07T11:55:42;25.20;94.10
27890;DHT22;15238;49.082;9.102;2023-05-07T11:57:42;25.40;95.00
27890;DHT22;15238;49.082;9.102;2023-05-07T11:59:43;25.10;94.80
27890;DHT22;15238;49.082;9.102;2023-05-07T12:01:48;25.30;93.60
27890;DHT22;15238;49.082;9.102;2023-05-07T12:03:48;24.90;94.50
27890;DHT22;15238;49.082;9.102;2023-05-07T12:05:49;25.10;94.30
27890;DHT22;15238;49.082;9.102;2023-05-07T12:07:56;25.30;94.30
27890;DHT22;15238;49.082;9.102;2023-05-07T12:09:57;25.20;94.80
27890;DHT22;15238;49.082;9.102;2023-05-07T12:12:03;25.00;92.20
27890;DHT22;15238;49.082;9.102;2023-05-07T12:14:03;25.10;92.20
27890;DHT22;15238;49.082;9.102;2023-05-07T12:16:05;25.00;93.40
27890;DHT22;15238;49.082;9.102;2023-05-07T12:18:07;24.90;93.10
27890;DHT22;15238;49.082;9.102;2023-05-07T12:20:08;24.90;92.80
27890;DHT22;15238;49.082;9.102;2023-05-07T12:22:10;25.10;92.10
27890;DHT22;15238;49.082;9.102;2023-05-07T12:24:11;25.40;92.80
27890;DHT22;15238;49.082;9.102;2023-05-07T12:26:11;25.80;90.10
27890;DHT22;15238;49.082;9.102;2023-05-07T12:28:19;25.80;86.70
27890;DHT22;15238;49.082;9.102;2023-05-07T12:30:19;25.70;89.00
27890;DHT22;15238;49.082;9.102;2023-05-07T12:32:21;25.70;89.60
27890;DHT22;15238;49.082;9.102;2023-05-07T12:34:22;25.90;90.50
27890;DHT22;15238;49.082;9.102;2023-05-07T12:36:22;26.30;91.00
27890;DHT22;15238;49.082;9.102;2023-05-07T12:38:23;25.90;92.90
27890;DHT22;15238;49.082;9.102;2023-05-07T12:40:24;25.80;91.70
27890;DHT22;15238;49.082;9.102;2023-05-07T12:42:24;25.10;92.20
27890;DHT22;15238;49.082;9.102;2023-05-07T12:44:31;24.70;92.10
27890;DHT22;15238;49.082;9.102;2023-05-07T12:46:32;24.80;91.30